| time (UTC) | temp F | wind direction | speed MPH | gust MPH | rain 1hr in | rain 24hr in | rain mn in | humidity % | barometer mb |
| 20260906231545 | 51 | 0 | 0.0 | 1.0 | 0.06 | 0.11 | 0.07 | 92 | 1017.2 |
| 20260906231032 | 51 | 0 | 0.0 | 1.0 | 0.06 | 0.11 | 0.07 | 92 | 1017.3 |
| 20260906230532 | 51 | 0 | 0.0 | 1.0 | 0.05 | 0.10 | 0.06 | 92 | 1017.3 |
| 20260906230052 | 51 | 0 | 0.0 | 1.0 | 0.05 | 0.09 | 0.05 | 92 | 1017.2 |
| 20260906225532 | 51 | 0 | 0.0 | 1.0 | 0.04 | 0.08 | 0.04 | 91 | 1017.3 |
| 20260906225032 | 52 | 0 | 0.0 | 1.0 | 0.04 | 0.08 | 0.04 | 91 | 1017.3 |
| 20260906224550 | 52 | 0 | 0.0 | 0.0 | 0.04 | 0.07 | 0.03 | 91 | 1017.5 |
| 20260906224031 | 52 | 0 | 0.0 | 0.0 | 0.03 | 0.07 | 0.03 | 91 | 1017.5 |
| 20260906223532 | 52 | 0 | 0.0 | 0.0 | 0.05 | 0.07 | 0.03 | 91 | 1017.5 |
| 20260906223048 | 52 | 0 | 0.0 | 0.0 | 0.05 | 0.06 | 0.02 | 90 | 1017.6 |
| 20260906222531 | 52 | 0 | 0.0 | 1.0 | 0.06 | 0.06 | 0.02 | 90 | 1017.6 |
| 20260906222032 | 52 | 0 | 0.0 | 3.0 | 0.06 | 0.06 | 0.02 | 89 | 1017.6 |
| 20260906221602 | 52 | 0 | 0.0 | 5.0 | 0.05 | 0.05 | 0.01 | 89 | 1017.8 |
| 20260906221032 | 52 | 220 | 2.0 | 5.0 | 0.04 | 0.04 | 0.00 | 89 | 1017.7 |
| 20260906220532 | 52 | 158 | 3.0 | 5.0 | 0.04 | 0.04 | 0.00 | 88 | 1017.7 |
| 20260906220054 | 52 | 166 | 1.0 | 5.0 | 0.03 | 0.03 | 0.00 | 88 | 1017.7 |
| 20260906215532 | 52 | 164 | 0.0 | 4.0 | 0.03 | 0.03 | 0.03 | 87 | 1017.6 |
| 20260906215032 | 53 | 172 | 2.0 | 4.0 | 0.03 | 0.03 | 0.03 | 86 | 1017.6 |
| 20260906214550 | 53 | 175 | 1.0 | 4.0 | 0.03 | 0.03 | 0.03 | 85 | 1017.7 |
| 20260906214034 | 53 | 140 | 0.0 | 2.0 | 0.03 | 0.03 | 0.03 | 84 | 1017.7 |
| 20260906213532 | 54 | 189 | 0.0 | 5.0 | 0.01 | 0.01 | 0.01 | 83 | 1017.7 |
| 20260906213055 | 54 | 0 | 0.0 | 5.0 | 0.00 | 0.00 | 0.00 | 82 | 1017.6 |
| 20260906212533 | 54 | 231 | 2.0 | 4.0 | 0.00 | 0.00 | 0.00 | 81 | 1017.7 |
| 20260906212032 | 54 | 175 | 1.0 | 3.0 | 0.00 | 0.00 | 0.00 | 81 | 1017.7 |
| 20260906211555 | 54 | 165 | 1.0 | 3.0 | 0.00 | 0.00 | 0.00 | 81 | 1017.5 |
| 20260906211031 | 54 | 141 | 0.0 | 3.0 | 0.00 | 0.00 | 0.00 | 81 | 1017.6 |
| 20260906210535 | 54 | 117 | 1.0 | 3.0 | 0.00 | 0.00 | 0.00 | 81 | 1017.6 |
| 20260906210107 | 54 | 0 | 0.0 | 2.0 | 0.00 | 0.00 | 0.00 | 82 | 1017.6 |
| 20260906205532 | 54 | 0 | 0.0 | 3.0 | 0.00 | 0.00 | 0.00 | 83 | 1017.5 |
| 20260906205030 | 54 | 0 | 1.0 | 3.0 | 0.00 | 0.00 | 0.00 | 83 | 1017.5 |
| 20260906204548 | 54 | 252 | 1.0 | 2.0 | 0.00 | 0.00 | 0.00 | 84 | 1017.5 |
| 20260906204032 | 54 | 0 | 0.0 | 1.0 | 0.00 | 0.00 | 0.00 | 85 | 1017.6 |
| 20260906203531 | 54 | 0 | 0.0 | 3.0 | 0.00 | 0.00 | 0.00 | 84 | 1017.6 |
| 20260906203045 | 53 | 0 | 1.0 | 4.0 | 0.00 | 0.00 | 0.00 | 84 | 1017.7 |
| 20260906202531 | 53 | 225 | 0.0 | 6.0 | 0.00 | 0.00 | 0.00 | 85 | 1017.6 |
| 20260906202031 | 53 | 236 | 4.0 | 8.0 | 0.00 | 0.00 | 0.00 | 85 | 1017.6 |
| 20260906201633 | 54 | 226 | 4.0 | 8.0 | 0.00 | 0.00 | 0.00 | 84 | 1017.6 |
| 20260906201033 | 54 | 221 | 4.0 | 7.0 | 0.00 | 0.00 | 0.00 | 82 | 1017.7 |
| 20260906200532 | 55 | 228 | 4.0 | 8.0 | 0.00 | 0.00 | 0.00 | 80 | 1017.6 |
| 20260906200050 | 55 | 226 | 4.0 | 8.0 | 0.00 | 0.00 | 0.00 | 78 | 1017.6 |
| 20260906195531 | 56 | 236 | 5.0 | 8.0 | 0.00 | 0.00 | 0.00 | 75 | 1017.6 |
| 20260906195036 | 57 | 224 | 5.0 | 10.0 | 0.00 | 0.00 | 0.00 | 72 | 1017.4 |
| 20260906194557 | 57 | 219 | 5.0 | 10.0 | 0.00 | 0.00 | 0.00 | 70 | 1017.3 |
| 20260906194032 | 58 | 230 | 6.0 | 10.0 | 0.00 | 0.00 | 0.00 | 68 | 1017.2 |
| 20260906193534 | 59 | 230 | 4.0 | 8.0 | 0.00 | 0.00 | 0.00 | 64 | 1017.2 |
| 20260906193056 | 59 | 269 | 3.0 | 8.0 | 0.00 | 0.00 | 0.00 | 64 | 1017.2 |
| 20260906192531 | 60 | 239 | 4.0 | 8.0 | 0.00 | 0.00 | 0.00 | 62 | 1017.2 |
| 20260906192034 | 60 | 226 | 3.0 | 8.0 | 0.00 | 0.00 | 0.00 | 61 | 1017.2 |
| 20260906191606 | 60 | 219 | 4.0 | 8.0 | 0.00 | 0.00 | 0.00 | 61 | 1017.2 |
| 20260906191031 | 60 | 203 | 2.0 | 6.0 | 0.00 | 0.00 | 0.00 | 61 | 1017.3 |
| 20260906190532 | 60 | 231 | 3.0 | 6.0 | 0.00 | 0.00 | 0.00 | 62 | 1017.3 |
| 20260906190058 | 60 | 0 | 1.0 | 7.0 | 0.00 | 0.00 | 0.00 | 62 | 1017.2 |
| 20260906185531 | 60 | 263 | 2.0 | 7.0 | 0.00 | 0.00 | 0.00 | 62 | 1017.3 |
| 20260906185035 | 60 | 235 | 4.0 | 7.0 | 0.00 | 0.00 | 0.00 | 63 | 1017.5 |
| 20260906184559 | 59 | 252 | 3.0 | 7.0 | 0.00 | 0.00 | 0.00 | 64 | 1017.4 |
| 20260906184034 | 59 | 221 | 3.0 | 6.0 | 0.00 | 0.00 | 0.00 | 66 | 1017.4 |
| 20260906183534 | 59 | 224 | 1.0 | 4.0 | 0.00 | 0.00 | 0.00 | 67 | 1017.4 |
| 20260906183057 | 59 | 235 | 2.0 | 4.0 | 0.00 | 0.00 | 0.00 | 67 | 1017.4 |
| 20260906182539 | 60 | 213 | 1.0 | 3.0 | 0.00 | 0.00 | 0.00 | 67 | 1017.5 |
| 20260906182037 | 60 | 219 | 1.0 | 7.0 | 0.00 | 0.00 | 0.00 | 67 | 1017.4 |
| 20260906181604 | 60 | 248 | 1.0 | 9.0 | 0.00 | 0.00 | 0.00 | 66 | 1017.4 |
| 20260906181035 | 60 | 238 | 5.0 | 9.0 | 0.00 | 0.00 | 0.00 | 65 | 1017.4 |
| 20260906180535 | 60 | 225 | 4.0 | 10.0 | 0.00 | 0.00 | 0.00 | 68 | 1017.5 |
| 20260906180055 | 60 | 240 | 4.0 | 10.0 | 0.00 | 0.00 | 0.00 | 66 | 1017.4 |
| 20260906175535 | 59 | 226 | 1.0 | 5.0 | 0.00 | 0.00 | 0.00 | 73 | 1017.3 |
| 20260906175031 | 59 | 219 | 1.0 | 6.0 | 0.00 | 0.00 | 0.00 | 72 | 1017.4 |
| 20260906174554 | 59 | 231 | 3.0 | 6.0 | 0.00 | 0.00 | 0.00 | 71 | 1017.3 |
| 20260906174032 | 59 | 252 | 0.0 | 2.0 | 0.00 | 0.00 | 0.00 | 74 | 1017.4 |
| 20260906173534 | 59 | 255 | 0.0 | 1.0 | 0.00 | 0.00 | 0.00 | 73 | 1017.2 |
| 20260906173056 | 60 | 210 | 0.0 | 1.0 | 0.00 | 0.00 | 0.00 | 72 | 1017.2 |
| 20260906172530 | 60 | 0 | 0.0 | 2.0 | 0.00 | 0.00 | 0.00 | 71 | 1017.2 |
| 20260906172034 | 60 | 0 | 0.0 | 4.0 | 0.00 | 0.00 | 0.00 | 70 | 1017.2 |
| 20260906171548 | 61 | 215 | 1.0 | 4.0 | 0.00 | 0.00 | 0.00 | 69 | 1017.2 |
| 20260906171034 | 61 | 219 | 1.0 | 2.0 | 0.00 | 0.00 | 0.00 | 69 | 1017.2 |
| 20260906170537 | 61 | 252 | 0.0 | 1.0 | 0.00 | 0.00 | 0.00 | 69 | 1017.2 |
| 20260906170046 | 61 | 302 | 0.0 | 4.0 | 0.00 | 0.00 | 0.00 | 69 | 1017.2 |
| 20260906165532 | 62 | 282 | 0.0 | 4.0 | 0.00 | 0.00 | 0.00 | 68 | 1017.2 |
| 20260906165031 | 62 | 219 | 2.0 | 4.0 | 0.00 | 0.00 | 0.00 | 67 | 1017.3 |
| 20260906164556 | 62 | 210 | 3.0 | 4.0 | 0.00 | 0.00 | 0.00 | 66 | 1017.1 |
| 20260906164034 | 63 | 217 | 2.0 | 5.0 | 0.00 | 0.00 | 0.00 | 65 | 1017.2 |
| 20260906163535 | 63 | 208 | 3.0 | 6.0 | 0.00 | 0.00 | 0.00 | 64 | 1017.2 |
| 20260906163101 | 63 | 236 | 3.0 | 8.0 | 0.00 | 0.00 | 0.00 | 64 | 1017.3 |
| 20260906162534 | 63 | 218 | 4.0 | 8.0 | 0.00 | 0.00 | 0.00 | 63 | 1017.3 |
| 20260906162032 | 63 | 215 | 3.0 | 7.0 | 0.00 | 0.00 | 0.00 | 63 | 1017.3 |
| 20260906161608 | 64 | 207 | 4.0 | 6.0 | 0.00 | 0.00 | 0.00 | 62 | 1017.3 |
| 20260906161033 | 64 | 202 | 4.0 | 6.0 | 0.00 | 0.00 | 0.00 | 62 | 1017.2 |
| 20260906160535 | 64 | 201 | 4.0 | 9.0 | 0.00 | 0.00 | 0.00 | 61 | 1017.3 |
| 20260906160058 | 64 | 219 | 4.0 | 9.0 | 0.00 | 0.00 | 0.00 | 61 | 1017.2 |
| 20260906155534 | 64 | 222 | 5.0 | 7.0 | 0.00 | 0.00 | 0.00 | 61 | 1017.2 |
| 20260906155035 | 64 | 211 | 5.0 | 10.0 | 0.00 | 0.00 | 0.00 | 61 | 1017.1 |
| 20260906154554 | 64 | 226 | 6.0 | 10.0 | 0.00 | 0.00 | 0.00 | 61 | 1017.2 |
| 20260906154033 | 64 | 189 | 4.0 | 8.0 | 0.00 | 0.00 | 0.00 | 61 | 1017.0 |
| 20260906153534 | 64 | 214 | 5.0 | 10.0 | 0.00 | 0.00 | 0.00 | 61 | 1017.0 |
| 20260906153048 | 64 | 232 | 4.0 | 10.0 | 0.00 | 0.00 | 0.00 | 61 | 1017.0 |
| 20260906152534 | 64 | 207 | 4.0 | 10.0 | 0.00 | 0.00 | 0.00 | 61 | 1017.0 |
| 20260906152038 | 64 | 207 | 5.0 | 10.0 | 0.00 | 0.00 | 0.00 | 59 | 1017.0 |
| 20260906151557 | 64 | 165 | 3.0 | 10.0 | 0.00 | 0.00 | 0.00 | 60 | 1017.1 |
| 20260906151035 | 65 | 221 | 6.0 | 10.0 | 0.00 | 0.00 | 0.00 | 58 | 1017.2 |
| 20260906150535 | 65 | 207 | 4.0 | 9.0 | 0.00 | 0.00 | 0.00 | 59 | 1017.2 |
| 20260906150055 | 65 | 226 | 6.0 | 11.0 | 0.00 | 0.00 | 0.00 | 56 | 1017.2 |
| 20260906145534 | 66 | 209 | 6.0 | 11.0 | 0.00 | 0.00 | 0.00 | 56 | 1017.4 |
| 20260906145031 | 67 | 212 | 2.0 | 7.0 | 0.00 | 0.00 | 0.00 | 50 | 1017.2 |
| 20260906144551 | 66 | 192 | 2.0 | 4.0 | 0.00 | 0.00 | 0.00 | 50 | 1017.2 |
| 20260906144034 | 66 | 291 | 2.0 | 8.0 | 0.00 | 0.00 | 0.00 | 49 | 1017.3 |
| 20260906143532 | 66 | 330 | 1.0 | 8.0 | 0.00 | 0.00 | 0.00 | 49 | 1017.3 |
| 20260906143054 | 66 | 227 | 3.0 | 8.0 | 0.00 | 0.00 | 0.00 | 49 | 1017.5 |
| 20260906142531 | 66 | 264 | 3.0 | 8.0 | 0.00 | 0.00 | 0.00 | 51 | 1017.3 |
| 20260906142035 | 66 | 211 | 4.0 | 9.0 | 0.00 | 0.00 | 0.00 | 49 | 1017.3 |
| 20260906141558 | 66 | 262 | 2.0 | 9.0 | 0.00 | 0.00 | 0.00 | 49 | 1017.4 |
| 20260906141034 | 65 | 157 | 5.0 | 11.0 | 0.00 | 0.00 | 0.00 | 48 | 1017.4 |
| 20260906140535 | 66 | 257 | 6.0 | 13.0 | 0.00 | 0.00 | 0.00 | 48 | 1017.5 |
| 20260906140104 | 66 | 268 | 6.0 | 13.0 | 0.00 | 0.00 | 0.00 | 48 | 1017.4 |
| 20260906135534 | 68 | 224 | 6.0 | 11.0 | 0.00 | 0.01 | 0.00 | 46 | 1017.3 |
| 20260906135031 | 68 | 231 | 7.0 | 14.0 | 0.00 | 0.01 | 0.00 | 46 | 1017.4 |
| 20260906134603 | 68 | 229 | 6.0 | 14.0 | 0.00 | 0.01 | 0.00 | 48 | 1017.3 |
| 20260906134031 | 67 | 270 | 6.0 | 16.0 | 0.00 | 0.01 | 0.00 | 47 | 1017.3 |
| 20260906133534 | 67 | 229 | 8.0 | 16.0 | 0.00 | 0.01 | 0.00 | 48 | 1017.3 |
| 20260906133049 | 68 | 216 | 6.0 | 14.0 | 0.00 | 0.01 | 0.00 | 48 | 1017.3 |
| 20260906132531 | 68 | 237 | 7.0 | 14.0 | 0.00 | 0.01 | 0.00 | 48 | 1017.3 |
| 20260906132034 | 68 | 212 | 7.0 | 14.0 | 0.00 | 0.01 | 0.00 | 47 | 1017.5 |
| 20260906131556 | 68 | 227 | 6.0 | 12.0 | 0.00 | 0.01 | 0.00 | 48 | 1017.3 |
| 20260906131034 | 68 | 236 | 4.0 | 12.0 | 0.00 | 0.01 | 0.00 | 50 | 1017.4 |
| 20260906130533 | 68 | 276 | 6.0 | 11.0 | 0.00 | 0.01 | 0.00 | 50 | 1017.3 |
| 20260906130108 | 67 | 225 | 6.0 | 10.0 | 0.00 | 0.01 | 0.00 | 47 | 1017.3 |
| 20260906125531 | 68 | 226 | 3.0 | 14.0 | 0.00 | 0.10 | 0.00 | 47 | 1017.3 |
| 20260906125033 | 68 | 326 | 4.0 | 14.0 | 0.00 | 0.10 | 0.00 | 46 | 1017.2 |
| 20260906124554 | 67 | 278 | 0.0 | 6.0 | 0.00 | 0.10 | 0.00 | 47 | 1017.4 |
| 20260906124031 | 67 | 252 | 1.0 | 9.0 | 0.00 | 0.10 | 0.00 | 48 | 1017.4 |
| 20260906123530 | 67 | 317 | 3.0 | 9.0 | 0.00 | 0.10 | 0.00 | 47 | 1017.3 |
| 20260906123056 | 67 | 283 | 2.0 | 9.0 | 0.00 | 0.10 | 0.00 | 48 | 1017.3 |
| 20260906122534 | 67 | 300 | 4.0 | 9.0 | 0.00 | 0.10 | 0.00 | 49 | 1017.5 |
| 20260906122033 | 67 | 233 | 1.0 | 6.0 | 0.00 | 0.10 | 0.00 | 47 | 1017.5 |
| 20260906121606 | 67 | 293 | 3.0 | 6.0 | 0.00 | 0.10 | 0.00 | 47 | 1017.5 |
| 20260906121031 | 66 | 220 | 2.0 | 5.0 | 0.00 | 0.10 | 0.00 | 48 | 1017.6 |
| 20260906120533 | 65 | 229 | 2.0 | 5.0 | 0.00 | 0.10 | 0.00 | 49 | 1017.6 |
| 20260906120051 | 65 | 252 | 3.0 | 6.0 | 0.00 | 0.10 | 0.00 | 52 | 1017.7 |
| 20260906115533 | 65 | 240 | 2.0 | 6.0 | 0.00 | 0.10 | 0.00 | 50 | 1017.6 |
| 20260906115030 | 66 | 249 | 3.0 | 5.0 | 0.00 | 0.10 | 0.00 | 48 | 1017.6 |
| 20260906114559 | 68 | 219 | 2.0 | 5.0 | 0.00 | 0.10 | 0.00 | 47 | 1017.6 |
| 20260906114033 | 68 | 201 | 1.0 | 5.0 | 0.00 | 0.10 | 0.00 | 48 | 1017.7 |
| 20260906113535 | 67 | 148 | 2.0 | 5.0 | 0.00 | 0.10 | 0.00 | 51 | 1017.5 |
| 20260906113056 | 65 | 106 | 1.0 | 5.0 | 0.00 | 0.10 | 0.00 | 51 | 1017.5 |
| 20260906112534 | 66 | 124 | 0.0 | 5.0 | 0.00 | 0.10 | 0.00 | 49 | 1017.5 |
| 20260906112034 | 66 | 135 | 2.0 | 4.0 | 0.00 | 0.10 | 0.00 | 49 | 1017.5 |
| 20260906111551 | 65 | 0 | 0.0 | 2.0 | 0.00 | 0.10 | 0.00 | 51 | 1017.6 |
| 20260906111034 | 65 | 0 | 0.0 | 5.0 | 0.00 | 0.10 | 0.00 | 51 | 1017.5 |
| 20260906110531 | 65 | 71 | 1.0 | 5.0 | 0.00 | 0.10 | 0.00 | 48 | 1017.4 |
| 20260906110047 | 66 | 1 | 2.0 | 6.0 | 0.00 | 0.10 | 0.00 | 50 | 1017.4 |
| 20260906105531 | 65 | 349 | 3.0 | 7.0 | 0.00 | 0.10 | 0.00 | 52 | 1017.5 |
| 20260906105039 | 65 | 30 | 3.0 | 7.0 | 0.00 | 0.10 | 0.00 | 51 | 1017.5 |
| 20260906104548 | 65 | 315 | 1.0 | 8.0 | 0.00 | 0.10 | 0.00 | 50 | 1017.4 |
| 20260906104034 | 65 | 318 | 3.0 | 8.0 | 0.00 | 0.10 | 0.00 | 52 | 1017.5 |
| 20260906103534 | 65 | 326 | 2.0 | 5.0 | 0.00 | 0.10 | 0.00 | 50 | 1017.5 |
| 20260906103046 | 64 | 304 | 2.0 | 8.0 | 0.00 | 0.10 | 0.00 | 51 | 1017.5 |
| 20260906102535 | 64 | 356 | 5.0 | 8.0 | 0.00 | 0.10 | 0.00 | 50 | 1017.6 |
| 20260906102036 | 65 | 7 | 0.0 | 8.0 | 0.00 | 0.10 | 0.00 | 51 | 1017.5 |
| 20260906101559 | 64 | 328 | 4.0 | 8.0 | 0.00 | 0.10 | 0.00 | 50 | 1017.5 |
| 20260906101036 | 64 | 336 | 3.0 | 8.0 | 0.00 | 0.10 | 0.00 | 53 | 1017.6 |
| 20260906100537 | 64 | 349 | 3.0 | 7.0 | 0.00 | 0.10 | 0.00 | 54 | 1017.6 |
| 20260906100049 | 64 | 303 | 2.0 | 8.0 | 0.00 | 0.10 | 0.00 | 53 | 1017.5 |
| 20260906095531 | 63 | 8 | 4.0 | 8.0 | 0.00 | 0.11 | 0.00 | 52 | 1017.4 |
| 20260906095034 | 64 | 319 | 4.0 | 9.0 | 0.00 | 0.11 | 0.00 | 54 | 1017.3 |
| 20260906094550 | 63 | 326 | 2.0 | 9.0 | 0.00 | 0.11 | 0.00 | 55 | 1017.3 |
| 20260906094034 | 63 | 339 | 4.0 | 9.0 | 0.00 | 0.11 | 0.00 | 53 | 1017.4 |
| 20260906093534 | 63 | 349 | 4.0 | 10.0 | 0.00 | 0.11 | 0.00 | 54 | 1017.4 |
| 20260906093046 | 63 | 338 | 4.0 | 10.0 | 0.00 | 0.11 | 0.00 | 55 | 1017.3 |
| 20260906092536 | 63 | 3 | 6.0 | 9.0 | 0.00 | 0.11 | 0.00 | 54 | 1017.3 |
| 20260906092034 | 63 | 313 | 4.0 | 8.0 | 0.00 | 0.11 | 0.00 | 56 | 1017.3 |
| 20260906091551 | 62 | 328 | 4.0 | 10.0 | 0.00 | 0.11 | 0.00 | 57 | 1017.4 |
| 20260906091034 | 62 | 327 | 5.0 | 12.0 | 0.00 | 0.11 | 0.00 | 56 | 1017.2 |
| 20260906090534 | 62 | 330 | 3.0 | 12.0 | 0.00 | 0.11 | 0.00 | 58 | 1017.2 |
| 20260906090049 | 62 | 318 | 5.0 | 10.0 | 0.00 | 0.11 | 0.00 | 58 | 1017.2 |
| 20260906085530 | 61 | 355 | 3.0 | 10.0 | 0.00 | 0.18 | 0.00 | 60 | 1017.3 |
| 20260906085032 | 61 | 317 | 5.0 | 10.0 | 0.00 | 0.18 | 0.00 | 58 | 1017.3 |
| 20260906084546 | 61 | 326 | 3.0 | 9.0 | 0.00 | 0.18 | 0.00 | 60 | 1017.3 |
| 20260906084033 | 60 | 350 | 4.0 | 9.0 | 0.00 | 0.18 | 0.00 | 61 | 1017.2 |
| 20260906083535 | 60 | 325 | 4.0 | 9.0 | 0.00 | 0.18 | 0.00 | 60 | 1017.2 |
| 20260906083054 | 60 | 328 | 4.0 | 10.0 | 0.00 | 0.18 | 0.00 | 61 | 1017.1 |
| 20260906082536 | 60 | 345 | 3.0 | 10.0 | 0.00 | 0.18 | 0.00 | 62 | 1017.1 |
| 20260906082031 | 60 | 311 | 4.0 | 15.0 | 0.00 | 0.18 | 0.00 | 63 | 1017.1 |
| 20260906081555 | 60 | 319 | 6.0 | 15.0 | 0.00 | 0.18 | 0.00 | 62 | 1017.0 |
| 20260906081031 | 59 | 335 | 5.0 | 9.0 | 0.00 | 0.18 | 0.00 | 63 | 1017.0 |
| 20260906080534 | 59 | 319 | 5.0 | 8.0 | 0.00 | 0.18 | 0.00 | 64 | 1016.9 |
| 20260906080048 | 59 | 352 | 5.0 | 9.0 | 0.00 | 0.18 | 0.00 | 65 | 1016.9 |
| 20260906075531 | 59 | 319 | 4.0 | 9.0 | 0.00 | 0.25 | 0.00 | 65 | 1016.7 |
| 20260906075031 | 59 | 340 | 5.0 | 10.0 | 0.00 | 0.25 | 0.00 | 66 | 1016.7 |
| 20260906074550 | 58 | 327 | 4.0 | 10.0 | 0.00 | 0.25 | 0.00 | 66 | 1016.7 |
| 20260906074030 | 58 | 330 | 4.0 | 10.0 | 0.00 | 0.25 | 0.00 | 66 | 1016.7 |
| 20260906073533 | 58 | 322 | 4.0 | 9.0 | 0.00 | 0.25 | 0.00 | 67 | 1016.8 |
| 20260906073048 | 58 | 328 | 4.0 | 9.0 | 0.00 | 0.25 | 0.00 | 68 | 1016.7 |
| 20260906072533 | 57 | 353 | 5.0 | 10.0 | 0.00 | 0.25 | 0.00 | 67 | 1016.7 |
| 20260906072033 | 57 | 325 | 6.0 | 10.0 | 0.00 | 0.25 | 0.00 | 68 | 1016.6 |
| 20260906071554 | 57 | 5 | 5.0 | 8.0 | 0.00 | 0.25 | 0.00 | 70 | 1016.7 |
| 20260906071033 | 57 | 359 | 4.0 | 8.0 | 0.00 | 0.25 | 0.00 | 70 | 1016.6 |
| 20260906070533 | 57 | 325 | 4.0 | 8.0 | 0.00 | 0.25 | 0.00 | 71 | 1016.4 |
| 20260906070046 | 57 | 345 | 4.0 | 6.0 | 0.00 | 0.25 | 0.00 | 71 | 1016.2 |
| 20260906065536 | 56 | 8 | 3.0 | 6.0 | 0.00 | 0.32 | 0.00 | 71 | 1016.3 |
| 20260906065033 | 56 | 8 | 2.0 | 6.0 | 0.00 | 0.32 | 0.00 | 71 | 1016.3 |
| 20260906064555 | 56 | 18 | 2.0 | 7.0 | 0.00 | 0.32 | 0.00 | 72 | 1016.2 |
| 20260906064032 | 56 | 338 | 2.0 | 7.0 | 0.00 | 0.32 | 0.00 | 72 | 1016.2 |
| 20260906063532 | 55 | 346 | 2.0 | 5.0 | 0.00 | 0.32 | 0.00 | 73 | 1016.2 |
| 20260906063047 | 55 | 344 | 2.0 | 5.0 | 0.00 | 0.32 | 0.00 | 74 | 1016.1 |
| 20260906062532 | 55 | 335 | 1.0 | 4.0 | 0.00 | 0.32 | 0.00 | 73 | 1016.2 |
| 20260906062032 | 55 | 8 | 1.0 | 5.0 | 0.00 | 0.32 | 0.00 | 74 | 1016.1 |
| 20260906061556 | 55 | 343 | 1.0 | 5.0 | 0.00 | 0.32 | 0.00 | 74 | 1016.1 |
| 20260906061032 | 54 | 7 | 0.0 | 5.0 | 0.00 | 0.32 | 0.00 | 74 | 1016.1 |
| 20260906060532 | 54 | 113 | 1.0 | 5.0 | 0.00 | 0.32 | 0.00 | 75 | 1016.0 |
| 20260906060133 | 53 | 6 | 2.0 | 5.0 | 0.00 | 0.32 | 0.00 | 76 | 1016.1 |
| 20260906055533 | 53 | 343 | 2.0 | 5.0 | 0.00 | 0.40 | 0.00 | 78 | 1016.2 |
| 20260906055032 | 53 | 4 | 1.0 | 8.0 | 0.00 | 0.40 | 0.00 | 76 | 1016.0 |
| 20260906054550 | 54 | 359 | 1.0 | 10.0 | 0.00 | 0.40 | 0.00 | 73 | 1015.9 |
| 20260906054033 | 55 | 348 | 5.0 | 10.0 | 0.00 | 0.40 | 0.00 | 71 | 1015.9 |
| 20260906053535 | 54 | 309 | 3.0 | 7.0 | 0.00 | 0.40 | 0.00 | 74 | 1015.8 |
| 20260906053048 | 53 | 10 | 2.0 | 7.0 | 0.00 | 0.40 | 0.00 | 75 | 1015.6 |
| 20260906052536 | 53 | 15 | 2.0 | 5.0 | 0.00 | 0.40 | 0.00 | 76 | 1015.6 |
| 20260906052033 | 52 | 0 | 2.0 | 5.0 | 0.00 | 0.40 | 0.00 | 77 | 1015.5 |
| 20260906051554 | 52 | 356 | 2.0 | 5.0 | 0.00 | 0.40 | 0.00 | 78 | 1015.4 |
| 20260906051032 | 51 | 24 | 0.0 | 3.0 | 0.00 | 0.40 | 0.00 | 79 | 1015.4 |
| 20260906050532 | 51 | 37 | 0.0 | 3.0 | 0.00 | 0.40 | 0.00 | 79 | 1015.3 |
| 20260906050109 | 51 | 50 | 0.0 | 2.0 | 0.00 | 0.40 | 0.00 | 79 | 1015.3 |
| 20260906045533 | 51 | 0 | 0.0 | 2.0 | 0.00 | 0.41 | 0.00 | 79 | 1015.3 |
| 20260906045034 | 51 | 0 | 0.0 | 2.0 | 0.00 | 0.41 | 0.00 | 78 | 1015.3 |
| 20260906044556 | 52 | 354 | 0.0 | 2.0 | 0.00 | 0.41 | 0.00 | 77 | 1015.3 |
| 20260906044035 | 52 | 89 | 0.0 | 2.0 | 0.00 | 0.41 | 0.00 | 76 | 1015.2 |
| 20260906043531 | 53 | 98 | 0.0 | 8.0 | 0.00 | 0.41 | 0.00 | 76 | 1015.1 |
| 20260906043046 | 52 | 9 | 1.0 | 8.0 | 0.00 | 0.41 | 0.00 | 76 | 1015.1 |
| 20260906042532 | 52 | 330 | 2.0 | 6.0 | 0.00 | 0.41 | 0.00 | 77 | 1015.0 |
| 20260906042032 | 52 | 307 | 2.0 | 6.0 | 0.00 | 0.41 | 0.00 | 77 | 1015.1 |
| 20260906041546 | 52 | 343 | 1.0 | 6.0 | 0.00 | 0.41 | 0.00 | 78 | 1014.9 |
| 20260906041033 | 52 | 13 | 0.0 | 5.0 | 0.00 | 0.41 | 0.00 | 78 | 1015.0 |
| 20260906040532 | 52 | 20 | 1.0 | 5.0 | 0.00 | 0.41 | 0.00 | 78 | 1014.9 |
| 20260906040050 | 52 | 89 | 0.0 | 4.0 | 0.00 | 0.41 | 0.00 | 78 | 1014.8 |
| 20260906035539 | 52 | 0 | 1.0 | 4.0 | 0.00 | 0.41 | 0.00 | 77 | 1014.9 |
| 20260906035033 | 52 | 0 | 1.0 | 3.0 | 0.00 | 0.41 | 0.00 | 77 | 1014.7 |
| 20260906034556 | 53 | 113 | 1.0 | 3.0 | 0.00 | 0.41 | 0.00 | 76 | 1014.6 |
| 20260906034033 | 53 | 51 | 1.0 | 5.0 | 0.00 | 0.41 | 0.00 | 76 | 1014.6 |
| 20260906033532 | 53 | 68 | 1.0 | 5.0 | 0.00 | 0.41 | 0.00 | 77 | 1014.5 |
| 20260906033045 | 53 | 0 | 0.0 | 8.0 | 0.00 | 0.41 | 0.00 | 77 | 1014.5 |
| 20260906032532 | 52 | 355 | 2.0 | 8.0 | 0.00 | 0.41 | 0.00 | 78 | 1014.4 |
| 20260906032032 | 52 | 4 | 2.0 | 4.0 | 0.00 | 0.41 | 0.00 | 78 | 1014.4 |
| 20260906031609 | 52 | 290 | 0.0 | 2.0 | 0.00 | 0.41 | 0.00 | 78 | 1014.3 |
| 20260906031032 | 52 | 332 | 1.0 | 2.0 | 0.00 | 0.41 | 0.00 | 78 | 1014.3 |
| 20260906030532 | 52 | 314 | 0.0 | 2.0 | 0.00 | 0.41 | 0.00 | 78 | 1014.2 |
| 20260906030047 | 52 | 92 | 0.0 | 2.0 | 0.00 | 0.41 | 0.00 | 77 | 1014.1 |
| 20260906025535 | 52 | 97 | 0.0 | 4.0 | 0.00 | 0.41 | 0.00 | 77 | 1014.1 |
| 20260906025033 | 52 | 51 | 0.0 | 4.0 | 0.00 | 0.41 | 0.00 | 77 | 1014.2 |
| 20260906024554 | 52 | 18 | 0.0 | 3.0 | 0.00 | 0.41 | 0.00 | 78 | 1014.2 |
| 20260906024031 | 52 | 0 | 0.0 | 3.0 | 0.00 | 0.41 | 0.00 | 78 | 1014.1 |
| 20260906023533 | 52 | 39 | 0.0 | 2.0 | 0.00 | 0.41 | 0.00 | 77 | 1014.1 |
| 20260906023105 | 52 | 32 | 0.0 | 4.0 | 0.00 | 0.41 | 0.00 | 77 | 1013.9 |
| 20260906022534 | 52 | 0 | 0.0 | 4.0 | 0.00 | 0.41 | 0.00 | 78 | 1013.9 |
| 20260906022032 | 52 | 117 | 0.0 | 2.0 | 0.00 | 0.41 | 0.00 | 79 | 1013.9 |
| 20260906021548 | 52 | 0 | 0.0 | 2.0 | 0.00 | 0.41 | 0.00 | 79 | 1013.8 |
| 20260906021031 | 52 | 113 | 0.0 | 2.0 | 0.00 | 0.41 | 0.00 | 78 | 1013.7 |
| 20260906020536 | 52 | 45 | 0.0 | 2.0 | 0.00 | 0.41 | 0.00 | 78 | 1013.7 |
| 20260906020059 | 53 | 0 | 0.0 | 8.0 | 0.00 | 0.41 | 0.00 | 77 | 1013.6 |
| 20260906015532 | 53 | 0 | 0.0 | 8.0 | 0.00 | 0.41 | 0.00 | 76 | 1013.8 |
| 20260906015034 | 53 | 339 | 2.0 | 6.0 | 0.00 | 0.41 | 0.00 | 76 | 1013.7 |
| 20260906014544 | 53 | 46 | 0.0 | 5.0 | 0.00 | 0.41 | 0.00 | 76 | 1013.6 |
| 20260906014032 | 53 | 0 | 1.0 | 7.0 | 0.00 | 0.41 | 0.00 | 76 | 1013.6 |
| 20260906013534 | 53 | 49 | 2.0 | 7.0 | 0.00 | 0.41 | 0.00 | 76 | 1013.7 |
| 20260906013048 | 53 | 0 | 2.0 | 7.0 | 0.00 | 0.41 | 0.00 | 76 | 1013.7 |
| 20260906012650 | 54 | 5 | 3.0 | 8.0 | 0.00 | 0.41 | 0.00 | 75 | 1013.7 |
| 20260906012032 | 54 | 57 | 4.0 | 9.0 | 0.00 | 0.41 | 0.00 | 74 | 1013.6 |
| 20260906011547 | 54 | 338 | 4.0 | 9.0 | 0.00 | 0.41 | 0.00 | 75 | 1013.6 |
| 20260906011032 | 54 | 356 | 5.0 | 9.0 | 0.00 | 0.41 | 0.00 | 75 | 1013.5 |
| 20260906010532 | 54 | 334 | 1.0 | 5.0 | 0.00 | 0.41 | 0.00 | 75 | 1013.4 |
| 20260906010059 | 53 | 61 | 3.0 | 5.0 | 0.00 | 0.41 | 0.00 | 77 | 1013.3 |
| 20260906005532 | 53 | 0 | 0.0 | 3.0 | 0.00 | 0.41 | 0.00 | 79 | 1013.3 |
| 20260906005032 | 52 | 0 | 0.0 | 3.0 | 0.00 | 0.41 | 0.00 | 79 | 1013.1 |
| 20260906004556 | 53 | 77 | 0.0 | 4.0 | 0.00 | 0.41 | 0.00 | 78 | 1013.1 |
| 20260906004032 | 53 | 0 | 1.0 | 6.0 | 0.00 | 0.41 | 0.00 | 77 | 1013.1 |
| 20260906003532 | 54 | 15 | 2.0 | 6.0 | 0.00 | 0.41 | 0.00 | 76 | 1013.1 |
| 20260906003058 | 54 | 195 | 1.0 | 5.0 | 0.00 | 0.41 | 0.00 | 76 | 1012.9 |
| 20260906002531 | 54 | 344 | 1.0 | 8.0 | 0.00 | 0.41 | 0.00 | 76 | 1012.9 |
| 20260906002033 | 54 | 63 | 3.0 | 8.0 | 0.00 | 0.41 | 0.00 | 76 | 1012.8 |
| 20260906001554 | 54 | 30 | 2.0 | 8.0 | 0.00 | 0.41 | 0.00 | 77 | 1012.7 |
| 20260906001032 | 53 | 47 | 1.0 | 5.0 | 0.00 | 0.41 | 0.00 | 78 | 1012.6 |
| 20260906000532 | 53 | 19 | 1.0 | 5.0 | 0.00 | 0.41 | 0.00 | 78 | 1012.5 |
| 20260906000105 | 53 | 58 | 0.0 | 5.0 | 0.00 | 0.41 | 0.00 | 78 | 1012.5 |
| 20260905235534 | 54 | 76 | 2.0 | 8.0 | 0.00 | 0.41 | 0.00 | 77 | 1012.3 |
| 20260905235033 | 54 | 355 | 3.0 | 9.0 | 0.00 | 0.41 | 0.00 | 76 | 1012.4 |
| 20260905234554 | 54 | 1 | 3.0 | 9.0 | 0.00 | 0.41 | 0.00 | 77 | 1012.3 |
| 20260905234032 | 53 | 330 | 4.0 | 8.0 | 0.00 | 0.41 | 0.00 | 78 | 1012.2 |
| 20260905233532 | 53 | 28 | 1.0 | 6.0 | 0.00 | 0.41 | 0.00 | 79 | 1012.2 |
| 20260905233102 | 53 | 356 | 1.0 | 6.0 | 0.00 | 0.41 | 0.00 | 78 | 1012.2 |
| 20260905232533 | 53 | 334 | 3.0 | 6.0 | 0.00 | 0.41 | 0.00 | 79 | 1012.1 |
| 20260905232034 | 53 | 20 | 1.0 | 4.0 | 0.00 | 0.41 | 0.00 | 79 | 1012.1 |